Time;durP1;ratioP1;P1;durP2;ratioP2;P2;SDS_P1;SDS_P2;PMS_P1;PMS_P2;Temp;Humidity;BMP_temperature;BMP_pressure;BME280_temperature;BME280_humidity;BME280_pressure;Samples;Min_cycle;Max_cycle;Signal;HPM_P1;HPM_P2
2023/03/11 00:00:50;;;;;;;0.75;0.35;;;;;;;7.89;100.00;99957.13;5053813;28;20081;-75
2023/03/11 00:03:21;;;;;;;0.95;0.40;;;;;;;7.85;100.00;99953.59;5048022;28;20513;-74
2023/03/11 00:05:51;;;;;;;0.35;0.30;;;;;;;7.81;100.00;99956.03;5055129;28;20123;-75
2023/03/11 00:08:23;;;;;;;0.75;0.30;;;;;;;7.94;100.00;99958.13;5051656;28;20124;-76
2023/03/11 00:10:54;;;;;;;0.25;0.25;;;;;;;8.12;100.00;99953.47;5048996;28;20067;-74
2023/03/11 00:13:25;;;;;;;2.13;0.40;;;;;;;8.39;100.00;99960.19;5047435;28;20083;-74
2023/03/11 00:15:56;;;;;;;0.47;0.30;;;;;;;8.50;99.58;99969.09;5049151;28;20049;-77
2023/03/11 00:18:26;;;;;;;0.35;0.15;;;;;;;8.63;100.00;99962.50;5049558;28;20151;-76
2023/03/11 00:20:56;;;;;;;0.28;0.20;;;;;;;8.70;99.59;99974.72;5049730;28;20047;-75
2023/03/11 00:23:25;;;;;;;0.20;0.20;;;;;;;8.81;95.97;99967.25;5050985;28;20049;-78
2023/03/11 00:25:53;;;;;;;1.05;0.40;;;;;;;8.81;98.19;99967.25;5053305;28;20503;-74
2023/03/11 00:28:24;;;;;;;0.75;0.30;;;;;;;8.96;99.41;99972.78;5048758;28;20076;-76
2023/03/11 00:30:55;;;;;;;0.30;0.30;;;;;;;9.12;98.66;99967.97;5049573;28;20064;-78
2023/03/11 00:33:24;;;;;;;0.30;0.20;;;;;;;9.13;96.73;99982.63;5039206;28;20099;-77
2023/03/11 00:35:52;;;;;;;0.22;0.20;;;;;;;9.12;93.65;99978.31;5052627;28;20053;-75
2023/03/11 00:38:21;;;;;;;0.70;0.20;;;;;;;9.15;93.13;99980.94;5042561;28;20057;-76
2023/03/11 00:40:50;;;;;;;0.17;0.15;;;;;;;9.19;92.99;99981.06;5051964;28;20050;-74
2023/03/11 00:43:19;;;;;;;1.48;0.30;;;;;;;9.01;89.89;99986.66;5046513;28;20105;-77
2023/03/11 00:45:48;;;;;;;0.80;0.30;;;;;;;9.00;90.46;99999.50;5045951;28;20152;-76
2023/03/11 00:48:18;;;;;;;0.20;0.20;;;;;;;8.96;90.97;100008.91;5047468;28;20053;-73
2023/03/11 00:50:46;;;;;;;1.45;0.20;;;;;;;8.91;91.67;100010.50;5048470;28;20430;-74
2023/03/11 00:53:15;;;;;;;2.53;0.20;;;;;;;8.88;91.83;100000.09;5046662;28;20053;-73
2023/03/11 00:55:44;;;;;;;1.13;0.50;;;;;;;8.89;91.95;100011.31;5052038;28;20106;-72
2023/03/11 00:58:13;;;;;;;1.20;0.20;;;;;;;8.89;90.76;100016.47;5048779;28;20055;-74
2023/03/11 01:00:42;;;;;;;0.35;0.13;;;;;;;8.84;88.29;100016.31;5047316;28;20150;-75
2023/03/11 01:03:10;;;;;;;1.42;0.32;;;;;;;8.81;88.86;100031.75;5050960;28;20046;-73
2023/03/11 01:05:41;;;;;;;2.05;0.20;;;;;;;8.80;89.96;100037.75;5052264;28;20048;-73
2023/03/11 01:08:09;;;;;;;2.22;0.20;;;;;;;8.75;89.15;100049.63;5048351;28;20095;-73
2023/03/11 01:10:38;;;;;;;2.58;0.68;;;;;;;8.69;89.17;100052.94;5044029;28;20049;-73
2023/03/11 01:13:07;;;;;;;0.47;0.22;;;;;;;8.74;89.70;100050.47;5042594;28;20457;-72
2023/03/11 01:15:37;;;;;;;4.68;0.30;;;;;;;8.80;91.16;100063.53;5039132;28;20044;-72
2023/03/11 01:18:06;;;;;;;0.68;0.40;;;;;;;8.71;89.76;100071.91;5041475;28;20048;-71
2023/03/11 01:20:35;;;;;;;1.17;0.38;;;;;;;8.70;89.71;100069.28;5052416;28;20049;-73
2023/03/11 01:23:06;;;;;;;1.75;0.15;;;;;;;8.74;90.95;100078.84;5041504;28;20049;-72
2023/03/11 01:25:35;;;;;;;1.00;0.20;;;;;;;8.77;90.21;100084.09;5057096;28;20057;-73
2023/03/11 01:28:03;;;;;;;4.15;0.40;;;;;;;8.76;90.63;100087.50;5046007;28;20049;-73
2023/03/11 01:30:32;;;;;;;0.80;0.30;;;;;;;8.80;92.13;100099.66;5044364;28;20049;-73
2023/03/11 01:33:01;;;;;;;1.58;0.30;;;;;;;8.78;90.91;100101.31;5050827;28;20103;-74
2023/03/11 01:35:31;;;;;;;0.95;0.20;;;;;;;8.76;91.70;100113.31;5052624;27;20052;-76
2023/03/11 01:38:00;;;;;;;0.90;0.38;;;;;;;8.74;91.01;100120.13;5048745;28;20041;-72
2023/03/11 01:40:31;;;;;;;1.90;0.35;;;;;;;8.73;91.04;100123.56;5050691;28;20044;-73
2023/03/11 01:43:01;;;;;;;3.73;0.77;;;;;;;8.69;90.27;100126.88;5054688;28;20057;-72
2023/03/11 01:45:41;;;;;;;0.80;0.32;;;;;;;8.64;88.97;100133.63;5040486;28;20053;-73
2023/03/11 01:48:11;;;;;;;1.38;0.35;;;;;;;8.58;87.26;100142.91;5037478;28;20521;-73
2023/03/11 01:50:43;;;;;;;2.25;0.43;;;;;;;8.55;87.33;100145.41;5049526;28;20056;-71
2023/03/11 01:53:18;;;;;;;0.28;0.20;;;;;;;8.53;87.50;100147.06;5055488;28;20084;-72
2023/03/11 01:55:49;;;;;;;2.97;0.30;;;;;;;8.50;88.10;100167.63;5043007;28;20050;-71
2023/03/11 01:58:21;;;;;;;0.55;0.20;;;;;;;8.39;88.37;100164.69;5035733;28;20057;-72
2023/03/11 02:00:50;;;;;;;0.57;0.22;;;;;;;8.36;89.87;100171.44;5038769;28;20057;-71
2023/03/11 02:03:24;;;;;;;1.65;0.40;;;;;;;8.29;90.94;100177.25;5044943;28;20045;-71
2023/03/11 02:05:54;;;;;;;0.05;0.03;;;;;;;8.26;91.04;100187.50;5051475;28;20119;-71
2023/03/11 02:08:23;;;;;;;0.82;0.30;;;;;;;8.23;90.92;100205.47;5049985;28;20634;-72
2023/03/11 02:10:54;;;;;;;3.50;0.20;;;;;;;8.20;92.20;100203.66;5053494;28;20072;-72
2023/03/11 02:13:23;;;;;;;1.70;0.50;;;;;;;8.22;92.63;100216.56;5047284;28;20572;-71
2023/03/11 02:15:52;;;;;;;1.45;0.30;;;;;;;8.17;92.90;100225.03;5049662;28;20711;-71
2023/03/11 02:18:21;;;;;;;3.10;0.70;;;;;;;8.12;93.05;100223.16;5058573;28;20060;-71
2023/03/11 02:20:58;;;;;;;0.70;0.45;;;;;;;8.08;94.13;100241.91;5046904;28;20060;-72
2023/03/11 02:23:34;;;;;;;2.22;0.38;;;;;;;8.02;94.26;100252.03;5051061;28;20052;-72
2023/03/11 02:26:14;;;;;;;5.68;0.40;;;;;;;7.97;94.68;100257.03;5054924;28;20052;-71
2023/03/11 02:28:47;;;;;;;0.45;0.25;;;;;;;7.90;96.37;100261.16;5050705;28;20060;-75
2023/03/11 02:31:15;;;;;;;;;;;;;;;7.84;96.29;100271.25;5038147;28;20107;-72
2023/03/11 02:33:46;;;;;;;5.95;0.55;;;;;;;7.72;96.68;100266.56;5042286;28;19931;-73
2023/03/11 02:36:32;;;;;;;1.45;0.35;;;;;;;7.61;96.26;100272.19;5053041;28;20445;-72
2023/03/11 02:39:01;;;;;;;1.70;0.40;;;;;;;7.57;96.49;100276.34;5044360;28;20053;-72
2023/03/11 02:41:30;;;;;;;2.67;0.52;;;;;;;7.58;96.72;100283.22;5055838;28;20044;-76
2023/03/11 02:44:02;;;;;;;1.08;0.35;;;;;;;7.58;97.56;100283.22;5049669;28;20045;-74
2023/03/11 02:46:32;;;;;;;2.83;0.75;;;;;;;7.60;98.15;100294.47;5051562;28;20132;-72
2023/03/11 02:49:01;;;;;;;2.22;0.60;;;;;;;7.57;97.40;100288.34;5054768;28;20126;-72
2023/03/11 02:51:30;;;;;;;3.72;0.60;;;;;;;7.64;97.95;100308.31;5048975;28;20045;-74
2023/03/11 02:54:03;;;;;;;0.88;0.52;;;;;;;7.65;98.52;100320.38;5047200;28;20048;-73
2023/03/11 02:56:32;;;;;;;2.00;0.75;;;;;;;7.64;98.79;100319.50;5059169;28;20106;-73
2023/03/11 02:59:03;;;;;;;1.20;0.38;;;;;;;7.61;99.42;100324.56;5048308;28;20049;-75
2023/03/11 03:01:32;;;;;;;2.03;0.82;;;;;;;7.56;96.68;100323.53;5049440;28;20053;-76
2023/03/11 03:04:00;;;;;;;4.22;0.73;;;;;;;7.58;98.37;100332.16;5052178;28;20086;-74
2023/03/11 03:06:29;;;;;;;2.35;1.08;;;;;;;7.60;98.21;100327.06;5051643;28;20091;-75
2023/03/11 03:08:58;;;;;;;3.70;0.85;;;;;;;7.59;96.73;100341.63;5049843;28;20049;-74
2023/03/11 03:11:26;;;;;;;2.42;0.60;;;;;;;7.58;97.00;100347.59;5049116;28;20071;-74
2023/03/11 03:14:02;;;;;;;4.78;1.02;;;;;;;7.54;96.90;100344.06;5048524;28;20063;-73
2023/03/11 03:16:32;;;;;;;3.83;0.60;;;;;;;7.53;97.64;100356.88;5052002;28;21202;-73
2023/03/11 03:19:01;;;;;;;2.47;0.82;;;;;;;7.53;97.53;100362.00;5040546;28;20099;-73
2023/03/11 03:21:29;;;;;;;2.72;0.98;;;;;;;7.53;97.38;100367.16;5046586;28;20049;-71
2023/03/11 03:23:58;;;;;;;2.08;0.50;;;;;;;7.53;96.54;100373.19;5049174;28;20048;-72
2023/03/11 03:26:27;;;;;;;2.05;0.90;;;;;;;7.52;97.80;100370.56;5053981;28;20052;-73
2023/03/11 03:28:55;;;;;;;2.25;0.80;;;;;;;7.49;98.32;100375.59;5049997;28;20992;-73
2023/03/11 03:31:24;;;;;;;0.85;0.32;;;;;;;7.46;97.47;100380.63;5046398;28;20550;-73
2023/03/11 03:33:54;;;;;;;0.40;0.30;;;;;;;7.43;97.70;100381.41;5050202;28;20693;-72
2023/03/11 03:36:22;;;;;;;2.45;0.30;;;;;;;7.43;97.45;100389.13;5053544;27;20053;-72
2023/03/11 03:38:55;;;;;;;4.45;0.45;;;;;;;7.43;98.19;100393.41;5044537;28;20558;-72
2023/03/11 03:41:24;;;;;;;0.73;0.40;;;;;;;7.43;98.59;100396.84;5044987;28;20076;-72
2023/03/11 03:43:53;;;;;;;0.93;0.52;;;;;;;7.41;98.59;100395.06;5056303;28;20079;-72
2023/03/11 03:46:23;;;;;;;2.15;0.85;;;;;;;7.41;98.55;100407.91;5042988;28;20049;-72
2023/03/11 03:48:53;;;;;;;2.35;0.60;;;;;;;7.43;98.85;100402.00;5048884;28;20067;-71
2023/03/11 03:51:21;;;;;;;7.57;0.88;;;;;;;7.45;98.09;100405.50;5048353;28;20049;-73
2023/03/11 03:53:50;;;;;;;4.90;0.85;;;;;;;7.46;98.13;100408.97;5036901;28;20045;-73
2023/03/11 03:56:19;;;;;;;2.85;0.50;;;;;;;7.45;98.46;100412.38;5052141;28;20040;-73
2023/03/11 03:58:48;;;;;;;4.75;0.75;;;;;;;7.44;97.99;100414.03;5045580;28;20052;-73
2023/03/11 04:01:16;;;;;;;4.72;1.33;;;;;;;7.46;97.58;100424.41;5045005;28;20049;-72
2023/03/11 04:03:45;;;;;;;4.07;0.70;;;;;;;7.49;98.57;100432.22;5047722;28;20076;-74
2023/03/11 04:06:18;;;;;;;1.98;0.73;;;;;;;7.51;97.72;100434.06;5057165;28;20784;-73
2023/03/11 04:08:47;;;;;;;2.65;0.63;;;;;;;7.54;96.82;100430.72;5036676;28;20048;-72
2023/03/11 04:11:16;;;;;;;1.33;0.40;;;;;;;7.54;98.23;100435.88;5052124;28;20036;-74
2023/03/11 04:13:44;;;;;;;2.38;0.52;;;;;;;7.51;100.00;100440.88;5035797;28;20407;-73
2023/03/11 04:16:17;;;;;;;0.93;0.30;;;;;;;7.46;100.00;100442.41;5039365;28;20084;-73
2023/03/11 04:18:46;;;;;;;3.08;0.57;;;;;;;7.46;100.00;100447.56;5040472;28;20044;-72
2023/03/11 04:21:16;;;;;;;2.15;0.45;;;;;;;7.49;100.00;100445.09;5044091;28;20045;-72
2023/03/11 04:23:54;;;;;;;2.75;0.70;;;;;;;7.53;100.00;100444.41;5047032;28;20049;-73
2023/03/11 04:26:22;;;;;;;2.95;0.68;;;;;;;7.55;100.00;100447.91;5044625;28;20053;-73
2023/03/11 04:28:51;;;;;;;2.13;0.73;;;;;;;7.54;99.85;100443.59;5045868;28;20820;-74
2023/03/11 04:31:20;;;;;;;0.98;0.55;;;;;;;7.55;99.68;100445.34;5047645;28;20069;-71
2023/03/11 04:33:48;;;;;;;4.07;0.75;;;;;;;7.58;99.52;100449.72;5042597;28;20759;-72
2023/03/11 04:36:32;;;;;;;4.97;0.85;;;;;;;7.58;99.60;100455.72;5043987;28;20135;-73
2023/03/11 04:39:01;;;;;;;2.08;0.60;;;;;;;7.61;99.06;100462.72;5034179;28;20110;-72
2023/03/11 04:41:29;;;;;;;5.50;0.43;;;;;;;7.63;99.01;100471.34;5040702;28;20048;-72
2023/03/11 04:43:59;;;;;;;4.22;0.50;;;;;;;7.63;98.62;100473.94;5035606;28;20052;-72
2023/03/11 04:46:28;;;;;;;1.70;0.77;;;;;;;7.61;98.39;100483.31;5046663;28;20052;-72
2023/03/11 04:48:57;;;;;;;3.72;0.63;;;;;;;7.55;99.15;100483.94;5041024;28;20698;-72
2023/03/11 04:51:27;;;;;;;5.38;0.95;;;;;;;7.45;99.98;100485.31;5046998;28;20049;-72
2023/03/11 04:53:56;;;;;;;1.98;0.73;;;;;;;7.39;99.95;100479.06;5041290;28;20040;-73
2023/03/11 04:56:25;;;;;;;2.90;0.60;;;;;;;7.33;100.00;100478.00;5047161;28;20509;-73
2023/03/11 04:58:54;;;;;;;4.72;0.63;;;;;;;7.31;99.83;100482.22;5048075;28;21032;-72
2023/03/11 05:01:28;;;;;;;3.10;0.93;;;;;;;7.30;97.98;100488.16;5044992;28;20152;-73
2023/03/11 05:03:57;;;;;;;2.45;0.57;;;;;;;7.28;97.80;100482.13;5046348;28;20057;-72
2023/03/11 05:06:27;;;;;;;4.03;0.70;;;;;;;7.28;98.31;100486.34;5051956;28;20498;-72
2023/03/11 05:08:56;;;;;;;1.45;0.60;;;;;;;7.27;97.05;100493.22;5046690;28;20049;-72
2023/03/11 05:11:25;;;;;;;2.88;0.80;;;;;;;7.27;98.08;100497.47;5040769;28;20068;-73
2023/03/11 05:13:53;;;;;;;4.35;0.82;;;;;;;7.22;97.11;100499.00;5036402;28;20451;-73
2023/03/11 05:16:22;;;;;;;3.47;0.70;;;;;;;7.15;97.45;100497.88;5042842;28;20391;-73
2023/03/11 05:18:51;;;;;;;1.60;0.80;;;;;;;7.09;97.53;100502.78;5043587;28;20060;-73
2023/03/11 05:21:19;;;;;;;1.85;0.82;;;;;;;7.09;97.58;100505.34;5046362;28;20044;-73
2023/03/11 05:23:49;;;;;;;5.85;0.82;;;;;;;7.09;97.82;100502.78;5047280;28;20056;-73
2023/03/11 05:26:18;;;;;;;3.17;0.70;;;;;;;7.08;97.94;100501.03;5040676;28;20651;-73
2023/03/11 05:28:47;;;;;;;5.82;0.90;;;;;;;7.07;96.76;100501.84;5045744;28;20052;-74
2023/03/11 05:31:15;;;;;;;7.68;1.27;;;;;;;7.08;97.00;100508.75;5037508;28;20164;-73
2023/03/11 05:33:44;;;;;;;3.08;1.13;;;;;;;7.09;96.90;100513.06;5048865;28;20048;-74
2023/03/11 05:36:13;;;;;;;5.05;1.40;;;;;;;7.11;96.81;100514.00;5047403;27;20049;-73
2023/03/11 05:38:42;;;;;;;2.35;0.75;;;;;;;7.16;96.56;100517.63;5038835;28;20519;-74
2023/03/11 05:41:12;;;;;;;5.60;1.10;;;;;;;7.16;95.80;100520.22;5044108;28;20041;-73
2023/03/11 05:43:41;;;;;;;1.95;0.82;;;;;;;7.17;97.20;100522.00;5043129;28;20049;-74
2023/03/11 05:46:10;;;;;;;4.22;1.15;;;;;;;7.24;97.11;100528.22;5041962;28;20076;-72
2023/03/11 05:48:39;;;;;;;5.35;1.35;;;;;;;7.29;97.21;100531.88;5046729;28;20045;-71
2023/03/11 05:51:09;;;;;;;3.90;1.00;;;;;;;7.30;96.78;100531.91;5044929;28;20140;-71
2023/03/11 05:53:38;;;;;;;3.75;1.13;;;;;;;7.32;96.93;100532.00;5050208;28;20122;-73
2023/03/11 05:56:12;;;;;;;5.85;1.55;;;;;;;7.30;95.22;100539.63;5050170;28;20048;-73
2023/03/11 05:58:41;;;;;;;3.65;0.82;;;;;;;7.28;95.12;100538.72;5047681;28;20510;-73
2023/03/11 06:01:11;;;;;;;3.58;0.75;;;;;;;7.27;95.48;100536.09;5042927;28;20049;-73
2023/03/11 06:03:39;;;;;;;2.67;1.00;;;;;;;7.27;95.13;100542.09;5046467;28;20802;-73
2023/03/11 06:06:10;;;;;;;2.45;0.95;;;;;;;7.24;96.30;100543.66;5043234;28;20041;-73
2023/03/11 06:08:38;;;;;;;1.73;0.80;;;;;;;7.23;97.08;100552.22;5044385;28;20048;-72
2023/03/11 06:11:10;;;;;;;1.80;1.02;;;;;;;7.18;97.40;100554.59;5048247;28;20411;-73
2023/03/11 06:13:40;;;;;;;5.28;1.25;;;;;;;7.17;97.13;100555.44;5045270;28;20052;-72
2023/03/11 06:16:09;;;;;;;4.35;1.15;;;;;;;7.12;96.94;100550.13;5048801;28;20075;-73
2023/03/11 06:18:38;;;;;;;3.58;0.60;;;;;;;7.08;97.92;100557.66;5046619;28;20048;-72
2023/03/11 06:21:07;;;;;;;8.63;1.42;;;;;;;7.03;97.78;100560.03;5050766;28;20545;-72
2023/03/11 06:23:36;;;;;;;8.55;1.05;;;;;;;6.99;98.46;100560.72;5049302;28;20056;-73
2023/03/11 06:26:06;;;;;;;4.30;1.15;;;;;;;6.92;98.79;100559.59;5045918;28;20754;-73
2023/03/11 06:28:35;;;;;;;3.50;1.05;;;;;;;6.89;99.06;100567.19;5041113;28;20640;-73
2023/03/11 06:31:12;;;;;;;6.90;1.05;;;;;;;6.87;99.35;100568.81;5056793;28;20397;-73
2023/03/11 06:33:41;;;;;;;3.67;0.98;;;;;;;6.82;99.56;100565.16;5055187;28;20506;-73
2023/03/11 06:36:11;;;;;;;4.10;1.20;;;;;;;6.80;100.00;100561.63;5053560;27;20583;-74
2023/03/11 06:38:40;;;;;;;3.25;1.20;;;;;;;6.79;99.83;100572.75;5043960;28;20635;-73
2023/03/11 06:41:09;;;;;;;4.72;1.15;;;;;;;6.78;99.69;100580.38;5054225;28;20825;-72
2023/03/11 06:43:38;;;;;;;3.03;1.17;;;;;;;6.78;100.00;100585.53;5060581;28;20053;-72
2023/03/11 06:46:12;;;;;;;6.35;1.10;;;;;;;6.79;99.10;100601.03;5047695;28;20057;-73
2023/03/11 06:48:41;;;;;;;2.65;0.98;;;;;;;6.76;98.73;100598.34;5048889;28;20534;-74
2023/03/11 06:51:11;;;;;;;2.72;1.17;;;;;;;6.74;98.04;100597.41;5048035;28;20055;-73
2023/03/11 06:53:40;;;;;;;3.60;0.80;;;;;;;6.73;98.62;100611.06;5048972;28;20056;-72
2023/03/11 06:56:10;;;;;;;2.92;1.00;;;;;;;6.70;98.23;100611.81;5048822;28;20099;-73
2023/03/11 06:58:40;;;;;;;7.15;1.08;;;;;;;6.70;99.05;100616.06;5051443;28;20045;-73
2023/03/11 07:01:13;;;;;;;6.68;1.27;;;;;;;6.66;98.53;100625.34;5045204;28;20049;-72
2023/03/11 07:03:43;;;;;;;3.40;1.20;;;;;;;6.63;99.31;100624.34;5050317;28;20168;-72
2023/03/11 07:06:17;;;;;;;2.38;0.98;;;;;;;6.60;99.62;100625.09;5044781;28;20055;-72
2023/03/11 07:08:48;;;;;;;2.05;0.80;;;;;;;6.59;99.92;100628.47;5055758;28;20052;-72
2023/03/11 07:11:18;;;;;;;6.25;1.05;;;;;;;6.57;99.20;100629.22;5046073;28;20056;-72
2023/03/11 07:13:47;;;;;;;5.45;1.20;;;;;;;6.56;99.59;100632.59;5043367;28;20094;-72
2023/03/11 07:16:19;;;;;;;4.28;1.25;;;;;;;6.48;99.93;100624.53;5051722;28;20049;-72
2023/03/11 07:18:49;;;;;;;7.00;1.88;;;;;;;6.50;100.00;100639.25;5043433;28;20049;-73
2023/03/11 07:21:19;;;;;;;2.97;0.85;;;;;;;6.50;100.00;100648.63;5042484;28;20049;-72
2023/03/11 07:23:49;;;;;;;3.45;1.00;;;;;;;6.47;100.00;100654.50;5046989;28;20123;-73
2023/03/11 07:26:18;;;;;;;4.53;1.48;;;;;;;6.47;100.00;100656.22;5043046;28;20089;-72
2023/03/11 07:28:48;;;;;;;1.67;1.42;;;;;;;6.46;100.00;100657.91;5043960;28;20179;-72
2023/03/11 07:31:20;;;;;;;2.78;1.20;;;;;;;6.42;100.00;100658.56;5053333;28;20045;-72
2023/03/11 07:33:48;;;;;;;2.13;0.80;;;;;;;6.37;100.00;100648.88;5047171;28;20131;-71
2023/03/11 07:36:19;;;;;;;4.28;1.08;;;;;;;6.38;100.00;100656.66;5047367;27;20298;-72
2023/03/11 07:38:48;;;;;;;2.53;0.90;;;;;;;6.33;100.00;100663.31;5045684;28;20087;-72
2023/03/11 07:41:17;;;;;;;7.30;0.88;;;;;;;6.29;100.00;100663.97;5052546;28;20131;-73
2023/03/11 07:43:45;;;;;;;3.53;1.05;;;;;;;6.25;100.00;100662.06;5047116;28;20514;-72
2023/03/11 07:46:17;;;;;;;3.50;0.80;;;;;;;6.23;100.00;100664.59;5043045;28;20048;-72
2023/03/11 07:48:47;;;;;;;1.50;0.70;;;;;;;6.25;100.00;100664.63;5049579;28;20063;-72
2023/03/11 07:51:18;;;;;;;2.85;0.75;;;;;;;6.27;100.00;100669.03;5049987;28;20044;-72
2023/03/11 07:53:47;;;;;;;2.15;0.90;;;;;;;6.28;100.00;100672.50;5047094;28;20537;-73
2023/03/11 07:56:17;;;;;;;9.82;1.10;;;;;;;6.28;100.00;100677.63;5039471;28;20052;-71
2023/03/11 07:58:46;;;;;;;0.98;0.80;;;;;;;6.29;100.00;100684.53;5039136;28;20492;-72
2023/03/11 08:01:17;;;;;;;4.22;1.08;;;;;;;6.28;100.00;100685.34;5051039;28;20044;-71
2023/03/11 08:03:49;;;;;;;2.15;0.90;;;;;;;6.30;100.00;100686.31;5043506;28;21182;-71
2023/03/11 08:06:20;;;;;;;1.98;1.00;;;;;;;6.29;100.00;100685.41;5051209;28;20453;-73
2023/03/11 08:08:49;;;;;;;4.28;1.00;;;;;;;6.33;100.00;100685.56;5036318;28;20463;-72
2023/03/11 08:11:19;;;;;;;4.13;1.15;;;;;;;6.31;100.00;100677.78;5045150;28;20050;-71
2023/03/11 08:13:48;;;;;;;5.13;0.80;;;;;;;6.32;100.00;100678.63;5050178;28;20401;-73
2023/03/11 08:16:19;;;;;;;0.77;0.40;;;;;;;6.32;100.00;100673.50;5045533;28;20411;-71
2023/03/11 08:18:50;;;;;;;3.03;1.00;;;;;;;6.27;100.00;100681.88;5049378;28;20127;-72
2023/03/11 08:21:22;;;;;;;4.78;0.95;;;;;;;6.25;100.00;100687.75;5034425;28;20261;-72
2023/03/11 08:23:50;;;;;;;4.38;0.88;;;;;;;6.25;100.00;100686.09;5046089;28;21200;-72
2023/03/11 08:26:20;;;;;;;1.80;0.70;;;;;;;6.25;100.00;100692.91;5042353;28;20103;-72
2023/03/11 08:28:49;;;;;;;2.58;1.23;;;;;;;6.22;100.00;100687.63;5048104;28;20063;-72
2023/03/11 08:31:19;;;;;;;6.65;0.77;;;;;;;6.18;100.00;100685.72;5052892;28;20052;-72
2023/03/11 08:33:51;;;;;;;3.13;0.70;;;;;;;6.22;100.00;100693.63;5046426;28;21172;-72
2023/03/11 08:36:20;;;;;;;11.98;1.33;;;;;;;6.26;100.00;100689.53;5049457;28;20052;-71
2023/03/11 08:38:49;;;;;;;3.58;0.80;;;;;;;6.29;100.00;100689.66;5031395;28;20079;-71
2023/03/11 08:41:18;;;;;;;4.93;1.08;;;;;;;6.31;100.00;100693.19;5033614;28;20049;-72
2023/03/11 08:43:46;;;;;;;2.13;1.00;;;;;;;6.31;100.00;100705.16;5026775;28;20482;-71
2023/03/11 08:46:24;;;;;;;1.10;0.60;;;;;;;6.30;100.00;100704.28;5030886;28;20058;-72
2023/03/11 08:48:55;;;;;;;5.47;1.55;;;;;;;6.31;100.00;100698.31;5039022;28;20075;-72
2023/03/11 08:51:24;;;;;;;2.40;0.82;;;;;;;6.34;100.00;100700.16;5035183;28;20060;-72
2023/03/11 08:53:53;;;;;;;4.15;1.10;;;;;;;6.35;100.00;100699.34;5026842;28;20394;-71
2023/03/11 08:56:22;;;;;;;1.42;0.55;;;;;;;6.33;100.00;100696.72;5024659;28;20061;-71
2023/03/11 08:58:51;;;;;;;1.05;0.65;;;;;;;6.33;100.00;100695.84;5029798;28;20080;-71
2023/03/11 09:01:20;;;;;;;1.42;0.60;;;;;;;6.34;100.00;100697.59;5022167;28;20060;-71
2023/03/11 09:03:48;;;;;;;1.95;0.70;;;;;;;6.30;100.00;100706.88;5034880;28;20129;-71
2023/03/11 09:06:18;;;;;;;2.80;0.88;;;;;;;6.27;100.00;100705.00;5028038;28;20050;-71
2023/03/11 09:08:49;;;;;;;0.90;0.60;;;;;;;6.27;99.92;100714.41;5024709;28;20045;-72
2023/03/11 09:11:20;;;;;;;2.40;0.47;;;;;;;6.26;99.62;100707.53;5031675;28;20045;-71
2023/03/11 09:13:49;;;;;;;1.85;0.85;;;;;;;6.24;99.21;100706.56;5026231;28;20129;-71
2023/03/11 09:16:20;;;;;;;0.95;0.50;;;;;;;6.21;99.51;100711.56;5033516;28;20045;-71
2023/03/11 09:18:49;;;;;;;2.15;0.85;;;;;;;6.19;99.16;100718.34;5029925;28;20049;-71
2023/03/11 09:21:19;;;;;;;1.08;0.60;;;;;;;6.12;100.00;100719.72;5029452;28;20049;-71
2023/03/11 09:23:48;;;;;;;4.65;0.80;;;;;;;6.06;100.00;100738.28;5029770;28;20037;-71
2023/03/11 09:26:16;;;;;;;2.38;0.80;;;;;;;6.01;100.00;100726.03;5027893;28;20046;-71
2023/03/11 09:28:47;;;;;;;1.58;0.93;;;;;;;5.96;100.00;100730.97;5024797;28;20061;-71
2023/03/11 09:31:16;;;;;;;2.63;0.50;;;;;;;5.92;100.00;100731.59;5035823;28;20057;-71
2023/03/11 09:33:46;;;;;;;1.75;0.60;;;;;;;5.87;100.00;100743.34;5034948;28;20110;-71
2023/03/11 09:36:16;;;;;;;1.95;0.43;;;;;;;5.85;100.00;100737.25;5030519;28;20053;-70
2023/03/11 09:38:46;;;;;;;2.03;0.60;;;;;;;5.83;100.00;100738.84;5043431;28;20494;-71
2023/03/11 09:41:24;;;;;;;1.73;0.68;;;;;;;5.82;100.00;100737.09;5041451;28;20052;-71
2023/03/11 09:44:05;;;;;;;2.03;0.52;;;;;;;5.81;100.00;100735.31;5044101;28;20056;-71
2023/03/11 09:46:58;;;;;;;3.08;0.98;;;;;;;5.80;100.00;100736.16;5049797;28;20044;-71
2023/03/11 09:49:37;;;;;;;2.17;0.73;;;;;;;5.81;100.00;100737.91;5047458;28;20538;-71
2023/03/11 09:52:10;;;;;;;1.98;1.38;;;;;;;5.81;100.00;100738.75;5048623;28;20460;-71
2023/03/11 09:54:43;;;;;;;0.77;0.63;;;;;;;5.80;100.00;100731.88;5051041;28;20056;-71
2023/03/11 09:57:17;;;;;;;1.10;0.68;;;;;;;5.77;100.00;100741.13;5040624;28;20049;-71
2023/03/11 09:59:47;;;;;;;3.20;0.63;;;;;;;5.77;100.00;100729.19;5048345;28;20515;-71
2023/03/11 10:02:18;;;;;;;2.90;0.57;;;;;;;5.77;100.00;100733.41;5043908;28;20044;-71
2023/03/11 10:04:55;;;;;;;1.10;0.60;;;;;;;5.77;100.00;100743.69;5047562;28;20514;-71
2023/03/11 10:07:29;;;;;;;2.47;0.45;;;;;;;5.78;100.00;100750.59;5044527;28;20052;-71
2023/03/11 10:10:00;;;;;;;0.88;0.68;;;;;;;5.80;100.00;100749.00;5048745;28;20477;-71
2023/03/11 10:12:45;;;;;;;0.82;0.60;;;;;;;5.81;100.00;100741.34;5054640;28;20072;-72
2023/03/11 10:15:23;;;;;;;0.88;0.52;;;;;;;5.81;100.00;100743.03;5045680;28;20418;-72
2023/03/11 10:18:19;;;;;;;4.15;0.68;;;;;;;5.81;100.00;100741.34;5048808;28;20120;-72
2023/03/11 10:20:56;;;;;;;6.97;0.70;;;;;;;5.82;100.00;100739.69;5044038;28;20056;-71
2023/03/11 10:23:34;;;;;;;3.05;1.23;;;;;;;5.83;100.00;100733.72;5051502;28;20041;-72
2023/03/11 10:26:12;;;;;;;1.70;0.77;;;;;;;5.83;100.00;100738.84;5056132;28;20057;-72
2023/03/11 10:28:45;;;;;;;1.48;0.47;;;;;;;5.84;100.00;100745.72;5051907;28;20059;-71
2023/03/11 10:31:25;;;;;;;1.85;0.70;;;;;;;5.85;100.00;100747.50;5048358;28;20076;-71
2023/03/11 10:33:57;;;;;;;2.08;0.60;;;;;;;5.86;100.00;100746.69;5051052;28;20116;-72
2023/03/11 10:36:30;;;;;;;1.48;0.73;;;;;;;5.85;100.00;100742.38;5049994;28;20048;-72
2023/03/11 10:38:59;;;;;;;0.55;0.50;;;;;;;5.81;100.00;100737.91;5052829;28;20068;-72
2023/03/11 10:41:36;;;;;;;4.20;0.70;;;;;;;5.79;100.00;100737.81;5049423;28;20044;-72
2023/03/11 10:44:10;;;;;;;1.92;0.50;;;;;;;5.77;100.00;100744.59;5051217;28;20172;-72
2023/03/11 10:46:38;;;;;;;3.20;0.63;;;;;;;5.77;100.00;100746.25;5047073;28;20170;-72
2023/03/11 10:49:14;;;;;;;8.63;0.85;;;;;;;5.79;100.00;100739.50;5037548;28;20045;-72
2023/03/11 10:51:45;;;;;;;1.77;0.75;;;;;;;5.80;100.00;100736.16;5049063;28;20509;-72
2023/03/11 10:54:25;;;;;;;5.03;0.85;;;;;;;5.83;100.00;100733.72;5058334;28;20115;-73
2023/03/11 10:56:59;;;;;;;1.95;0.88;;;;;;;5.83;100.00;100732.03;5053475;28;20045;-72
2023/03/11 10:59:31;;;;;;;1.95;0.63;;;;;;;5.83;100.00;100731.16;5048713;28;20056;-72
2023/03/11 11:02:01;;;;;;;2.80;0.60;;;;;;;5.82;100.00;100737.09;5041060;28;20122;-72
2023/03/11 11:04:37;;;;;;;5.90;0.80;;;;;;;5.81;100.00;100730.19;5050579;28;20491;-72
2023/03/11 11:07:21;;;;;;;1.63;0.75;;;;;;;5.78;100.00;100719.78;5047445;28;20787;-72
2023/03/11 11:10:10;;;;;;;2.50;0.70;;;;;;;5.76;100.00;100726.53;5049553;28;20048;-72
2023/03/11 11:12:54;;;;;;;0.68;0.60;;;;;;;5.73;100.00;100724.69;5049157;28;20049;-72
2023/03/11 11:15:25;;;;;;;3.92;1.02;;;;;;;5.75;100.00;100730.78;5047381;28;20053;-72
2023/03/11 11:17:55;;;;;;;4.50;0.77;;;;;;;5.78;100.00;100730.06;5046263;28;20052;-72
2023/03/11 11:20:25;;;;;;;3.28;1.38;;;;;;;5.82;100.00;100720.00;5047523;28;20061;-71
2023/03/11 11:22:56;;;;;;;1.15;0.93;;;;;;;5.82;100.00;100717.44;5051618;28;20139;-72
2023/03/11 11:25:30;;;;;;;1.60;0.73;;;;;;;5.82;100.00;100716.56;5053968;28;20069;-72
2023/03/11 11:28:04;;;;;;;1.10;0.60;;;;;;;5.82;100.00;100721.69;5050414;28;20047;-72
2023/03/11 11:30:32;;;;;;;1.27;0.68;;;;;;;5.83;100.00;100723.44;5041102;28;20037;-72
2023/03/11 11:33:22;;;;;;;6.35;1.13;;;;;;;5.81;100.00;100722.50;5046502;28;20511;-72
2023/03/11 11:35:52;;;;;;;2.17;0.68;;;;;;;5.74;100.00;100723.88;5049363;28;20107;-72
2023/03/11 11:38:31;;;;;;;1.45;1.00;;;;;;;5.69;100.00;100719.34;5045636;27;20069;-71
2023/03/11 11:41:03;;;;;;;3.08;1.00;;;;;;;5.63;100.00;100731.03;5044763;28;20049;-72
2023/03/11 11:43:47;;;;;;;1.65;0.93;;;;;;;5.59;100.00;100724.03;5049393;28;20071;-72
2023/03/11 11:46:21;;;;;;;3.88;1.25;;;;;;;5.54;100.00;100720.34;5052652;28;20111;-72
2023/03/11 11:49:04;;;;;;;5.78;0.93;;;;;;;5.49;100.00;100721.78;5049091;28;20047;-72